createdAt,value
2022-10-22T00:01:16.156Z,1.10
2022-10-22T00:03:44.258Z,1.60
2022-10-22T00:06:12.607Z,1.37
2022-10-22T00:08:40.906Z,1.97
2022-10-22T00:11:10.879Z,2.27
2022-10-22T00:13:39.171Z,2.70
2022-10-22T00:16:07.458Z,0.70
2022-10-22T00:18:37.448Z,2.30
2022-10-22T00:21:06.455Z,1.40
2022-10-22T00:23:34.935Z,1.43
2022-10-22T00:26:03.080Z,1.20
2022-10-22T00:28:31.238Z,0.70
2022-10-22T00:31:00.666Z,3.10
2022-10-22T00:33:30.170Z,1.27
2022-10-22T00:35:59.840Z,2.60
2022-10-22T00:38:28.011Z,5.27
2022-10-22T00:40:56.615Z,2.23
2022-10-22T00:43:24.839Z,1.00
2022-10-22T00:45:53.012Z,1.10
2022-10-22T00:48:24.315Z,1.50
2022-10-22T00:50:56.461Z,1.00
2022-10-22T00:53:31.276Z,1.33
2022-10-22T00:55:59.947Z,0.80
2022-10-22T00:58:32.038Z,2.30
2022-10-22T01:01:00.727Z,3.10
2022-10-22T01:03:29.848Z,1.63
2022-10-22T01:06:00.585Z,2.20
2022-10-22T01:08:38.192Z,1.63
2022-10-22T01:11:14.380Z,0.80
2022-10-22T01:13:53.724Z,0.80
2022-10-22T01:16:30.591Z,1.37
2022-10-22T01:19:03.557Z,1.10
2022-10-22T01:21:36.084Z,1.30
2022-10-22T01:24:25.457Z,1.30
2022-10-22T01:27:01.298Z,1.50
2022-10-22T01:29:34.468Z,3.03
2022-10-22T01:32:05.920Z,1.43
2022-10-22T01:34:35.561Z,4.93
2022-10-22T01:37:04.610Z,3.03
2022-10-22T01:39:33.427Z,4.03
2022-10-22T01:42:01.668Z,2.20
2022-10-22T01:44:33.042Z,1.57
2022-10-22T01:47:11.126Z,3.17
2022-10-22T01:49:55.979Z,4.43
2022-10-22T01:52:34.633Z,2.93
2022-10-22T01:55:12.801Z,1.20
2022-10-22T01:57:45.267Z,13.40
2022-10-22T02:00:18.421Z,2.30
2022-10-22T02:02:54.560Z,1.40
2022-10-22T02:05:26.712Z,1.10
2022-10-22T02:07:59.226Z,2.80
2022-10-22T02:10:28.948Z,1.20
2022-10-22T02:12:58.702Z,5.40
2022-10-22T02:15:31.843Z,2.00
2022-10-22T02:18:01.736Z,2.03
2022-10-22T02:20:32.266Z,1.30
2022-10-22T02:23:01.790Z,6.40
2022-10-22T02:25:33.734Z,6.13
2022-10-22T02:28:12.840Z,2.50
2022-10-22T02:30:47.914Z,1.70
2022-10-22T02:33:21.579Z,3.10
2022-10-22T02:35:53.438Z,1.00
2022-10-22T02:38:22.957Z,1.83
2022-10-22T02:40:51.340Z,1.33
2022-10-22T02:43:19.848Z,2.03
2022-10-22T02:45:49.384Z,1.23
2022-10-22T02:48:17.698Z,7.20
2022-10-22T02:50:45.895Z,3.60
2022-10-22T02:53:14.148Z,2.20
2022-10-22T02:55:42.282Z,0.80
2022-10-22T02:58:11.098Z,0.80
2022-10-22T03:00:39.232Z,2.93
2022-10-22T03:03:08.875Z,0.80
2022-10-22T03:05:37.055Z,1.33
2022-10-22T03:08:05.868Z,0.90
2022-10-22T03:10:34.052Z,1.03
2022-10-22T03:13:02.276Z,2.13
2022-10-22T03:15:30.670Z,0.80
2022-10-22T03:17:58.818Z,1.07
2022-10-22T03:20:28.880Z,1.47
2022-10-22T03:22:58.345Z,1.10
2022-10-22T03:25:31.087Z,0.90
2022-10-22T03:28:04.124Z,2.30
2022-10-22T03:30:32.722Z,1.47
2022-10-22T03:33:00.814Z,1.03
2022-10-22T03:35:31.572Z,3.90
2022-10-22T03:38:02.135Z,2.73
2022-10-22T03:40:30.608Z,2.00
2022-10-22T03:43:00.083Z,2.50
2022-10-22T03:45:28.296Z,1.77
2022-10-22T03:47:56.428Z,0.80
2022-10-22T03:50:24.565Z,0.90
2022-10-22T03:52:54.395Z,1.83
2022-10-22T03:55:22.538Z,1.93
2022-10-22T03:57:50.731Z,3.83
2022-10-22T04:00:19.311Z,2.50
2022-10-22T04:02:47.400Z,1.23
2022-10-22T04:05:15.684Z,1.13
2022-10-22T04:07:43.965Z,0.83
2022-10-22T04:10:13.824Z,1.07
2022-10-22T04:12:42.080Z,2.17
2022-10-22T04:15:11.051Z,1.37
2022-10-22T04:17:39.542Z,2.10
2022-10-22T04:20:08.743Z,1.23
2022-10-22T04:22:37.630Z,1.27
2022-10-22T04:25:06.859Z,1.90
2022-10-22T04:27:36.862Z,1.20
2022-10-22T04:30:06.559Z,4.33
2022-10-22T04:32:34.692Z,10.93
2022-10-22T04:35:02.976Z,2.83
2022-10-22T04:37:32.891Z,1.57
2022-10-22T04:40:01.123Z,1.27
2022-10-22T04:42:29.232Z,2.50
2022-10-22T04:44:59.042Z,1.07
2022-10-22T04:47:27.126Z,3.67
2022-10-22T04:49:55.247Z,1.10
2022-10-22T04:52:23.379Z,2.10
2022-10-22T04:54:51.489Z,0.90
2022-10-22T04:57:19.635Z,1.83
2022-10-22T04:59:47.706Z,1.87
2022-10-22T05:02:17.239Z,1.57
2022-10-22T05:04:45.698Z,1.77
2022-10-22T05:07:13.815Z,2.30
2022-10-22T05:09:42.060Z,1.73
2022-10-22T05:12:10.249Z,1.93
2022-10-22T05:14:42.567Z,2.30
2022-10-22T05:17:12.890Z,1.20
2022-10-22T05:19:42.426Z,7.13
2022-10-22T05:22:10.531Z,3.33
2022-10-22T05:24:39.036Z,3.03
2022-10-22T05:27:07.245Z,3.70
2022-10-22T05:29:35.728Z,3.47
2022-10-22T05:32:03.900Z,6.10
2022-10-22T05:34:33.387Z,0.90
2022-10-22T05:37:02.966Z,1.60
2022-10-22T05:39:31.355Z,4.30
2022-10-22T05:41:59.610Z,6.33
2022-10-22T05:44:27.864Z,1.20
2022-10-22T05:46:56.247Z,1.10
2022-10-22T05:49:24.400Z,1.07
2022-10-22T05:51:52.600Z,6.73
2022-10-22T05:54:22.461Z,1.57
2022-10-22T05:56:50.700Z,2.40
2022-10-22T05:59:18.828Z,2.60
2022-10-22T06:01:47.063Z,0.87
2022-10-22T06:04:16.191Z,1.93
2022-10-22T06:06:46.095Z,1.37
2022-10-22T06:09:18.549Z,1.43
2022-10-22T06:11:48.736Z,7.10
2022-10-22T06:14:17.335Z,3.43
2022-10-22T06:16:45.659Z,7.30
2022-10-22T06:19:14.947Z,3.23
2022-10-22T06:21:43.369Z,1.53
2022-10-22T06:24:12.792Z,2.40
2022-10-22T06:26:42.004Z,1.67
2022-10-22T06:29:12.655Z,1.17
2022-10-22T06:31:40.736Z,1.87
2022-10-22T06:34:11.775Z,11.17
2022-10-22T06:39:12.050Z,0.80
2022-10-22T06:41:40.138Z,1.67
2022-10-22T06:44:08.656Z,1.30
2022-10-22T06:46:39.047Z,2.40
2022-10-22T06:49:12.776Z,1.20
2022-10-22T06:51:40.928Z,2.33
2022-10-22T06:54:09.274Z,2.17
2022-10-22T06:56:37.466Z,1.30
2022-10-22T06:59:05.919Z,0.80
2022-10-22T07:01:35.803Z,1.20
2022-10-22T07:04:06.226Z,1.47
2022-10-22T07:06:34.370Z,0.70
2022-10-22T07:09:02.591Z,2.50
2022-10-22T07:11:33.806Z,1.10
2022-10-22T07:14:02.034Z,1.10
2022-10-22T07:16:32.537Z,0.97
2022-10-22T07:19:01.044Z,2.33
2022-10-22T07:21:31.206Z,1.30
2022-10-22T07:24:00.111Z,8.53
2022-10-22T07:26:31.035Z,4.00
2022-10-22T07:29:00.124Z,2.87
2022-10-22T07:31:28.256Z,1.20
2022-10-22T07:33:56.514Z,1.10
2022-10-22T07:36:24.611Z,3.80
2022-10-22T07:38:57.810Z,1.30
2022-10-22T07:41:26.522Z,2.37
2022-10-22T07:43:54.833Z,1.20
2022-10-22T07:46:24.784Z,3.50
2022-10-22T07:48:53.276Z,2.93
2022-10-22T07:51:22.122Z,1.90
2022-10-22T07:53:50.419Z,1.20
2022-10-22T07:56:20.192Z,1.67
2022-10-22T07:58:48.508Z,1.40
2022-10-22T08:01:16.778Z,1.70
2022-10-22T08:03:45.094Z,1.63
2022-10-22T08:06:15.529Z,1.10
2022-10-22T08:08:45.733Z,0.97
2022-10-22T08:11:14.343Z,1.50
2022-10-22T08:13:45.678Z,1.17
2022-10-22T08:16:15.373Z,1.03
2022-10-22T08:18:43.924Z,3.90
2022-10-22T08:21:12.634Z,2.17
2022-10-22T08:23:41.135Z,4.70
2022-10-22T08:26:09.684Z,2.00
2022-10-22T08:28:38.115Z,1.53
2022-10-22T08:31:09.447Z,2.27
2022-10-22T08:33:38.898Z,0.83
2022-10-22T08:36:07.930Z,1.83
2022-10-22T08:38:36.358Z,0.80
2022-10-22T08:41:13.238Z,1.37
2022-10-22T08:44:16.844Z,1.33
2022-10-22T08:47:01.208Z,2.70
2022-10-22T08:49:35.063Z,2.67
2022-10-22T08:52:06.072Z,2.50
2022-10-22T08:54:41.554Z,2.83
2022-10-22T08:57:25.718Z,1.60
2022-10-22T09:00:03.323Z,2.47
2022-10-22T09:02:42.231Z,2.23
2022-10-22T09:05:24.639Z,1.10
2022-10-22T09:07:53.301Z,6.57
2022-10-22T09:10:25.580Z,0.97
2022-10-22T09:12:54.288Z,7.20
2022-10-22T09:15:22.956Z,1.23
2022-10-22T09:18:15.309Z,1.23
2022-10-22T09:20:50.462Z,3.00
2022-10-22T09:23:32.079Z,0.90
2022-10-22T09:26:01.588Z,1.57
2022-10-22T09:28:29.876Z,1.97
2022-10-22T09:33:33.708Z,1.47
2022-10-22T09:36:05.764Z,1.40
2022-10-22T09:38:39.853Z,2.07
2022-10-22T09:41:09.584Z,4.37
2022-10-22T09:43:38.400Z,4.60
2022-10-22T09:46:08.857Z,6.80
2022-10-22T09:48:42.491Z,1.57
2022-10-22T09:51:16.546Z,3.20
2022-10-22T09:53:47.651Z,5.47
2022-10-22T09:56:25.340Z,5.13
2022-10-22T09:58:53.672Z,7.60
2022-10-22T10:01:25.040Z,3.13
2022-10-22T10:03:54.696Z,5.43
2022-10-22T10:06:24.799Z,7.00
2022-10-22T10:08:53.096Z,4.20
2022-10-22T10:11:30.163Z,1.10
2022-10-22T10:14:09.444Z,2.53
2022-10-22T10:16:50.750Z,6.47
2022-10-22T10:22:28.655Z,1.67
2022-10-22T10:25:11.855Z,1.77
2022-10-22T10:27:44.160Z,4.60
2022-10-22T10:30:17.011Z,3.33
2022-10-22T10:33:07.097Z,3.93
2022-10-22T10:35:44.284Z,3.27
2022-10-22T10:38:32.997Z,6.30
2022-10-22T10:41:14.250Z,4.97
2022-10-22T10:44:00.500Z,6.10
2022-10-22T10:46:37.397Z,2.27
2022-10-22T10:49:11.161Z,3.47
2022-10-22T10:51:48.487Z,3.40
2022-10-22T10:54:44.992Z,4.33
2022-10-22T10:57:23.344Z,7.10
2022-10-22T11:00:03.355Z,6.40
2022-10-22T11:03:04.651Z,2.50
2022-10-22T11:05:39.038Z,1.80
2022-10-22T11:08:14.159Z,4.23
2022-10-22T11:10:46.802Z,7.07
2022-10-22T11:13:21.989Z,8.63
2022-10-22T11:15:55.205Z,3.00
2022-10-22T11:18:30.221Z,5.37
2022-10-22T11:21:25.433Z,8.27
2022-10-22T11:24:02.177Z,5.47
2022-10-22T11:26:40.011Z,3.60
2022-10-22T11:29:14.068Z,6.13
2022-10-22T11:31:42.784Z,4.83
2022-10-22T11:34:33.203Z,2.43
2022-10-22T11:37:03.275Z,4.03
2022-10-22T11:39:36.220Z,7.40
2022-10-22T11:42:10.459Z,2.40
2022-10-22T11:44:50.034Z,3.60
2022-10-22T11:47:21.118Z,2.70
2022-10-22T11:49:59.400Z,2.40
2022-10-22T11:52:40.113Z,6.23
2022-10-22T11:55:34.507Z,5.43
2022-10-22T11:58:26.371Z,5.27
2022-10-22T12:00:56.023Z,5.33
2022-10-22T12:03:41.084Z,5.53
2022-10-22T12:06:21.095Z,5.17
2022-10-22T12:08:59.847Z,8.17
2022-10-22T12:11:30.280Z,4.57
2022-10-22T12:14:18.960Z,5.57
2022-10-22T12:16:57.459Z,4.60
2022-10-22T12:19:29.136Z,3.57
2022-10-22T12:22:00.720Z,12.90
2022-10-22T12:24:33.638Z,3.40
2022-10-22T12:27:01.842Z,10.87
2022-10-22T12:29:33.735Z,2.20
2022-10-22T12:32:05.205Z,5.73
2022-10-22T12:34:33.360Z,1.83
2022-10-22T12:37:05.708Z,8.20
2022-10-22T12:39:35.447Z,3.50
2022-10-22T12:42:06.314Z,4.63
2022-10-22T12:44:36.135Z,3.10
2022-10-22T12:47:04.332Z,3.33
2022-10-22T12:49:37.364Z,4.43
2022-10-22T12:52:10.944Z,5.03
2022-10-22T12:54:41.799Z,1.83
2022-10-22T12:57:14.250Z,7.50
2022-10-22T12:59:48.890Z,3.40
2022-10-22T13:02:22.712Z,3.50
2022-10-22T13:05:21.597Z,2.20
2022-10-22T13:07:51.810Z,6.43
2022-10-22T13:10:25.527Z,1.13
2022-10-22T13:12:58.179Z,2.70
2022-10-22T13:15:46.835Z,7.23
2022-10-22T13:18:20.065Z,4.37
2022-10-22T13:20:56.057Z,2.97
2022-10-22T13:23:26.556Z,3.73
2022-10-22T13:26:00.272Z,3.67
2022-10-22T13:28:29.652Z,3.03
2022-10-22T13:31:01.567Z,3.40
2022-10-22T13:33:35.308Z,1.77
2022-10-22T13:36:04.666Z,4.27
2022-10-22T13:38:33.033Z,8.33
2022-10-22T13:41:03.245Z,7.23
2022-10-22T13:43:31.499Z,3.00
2022-10-22T13:46:01.804Z,3.83
2022-10-22T13:48:31.107Z,3.63
2022-10-22T13:50:59.542Z,5.47
2022-10-22T13:53:30.301Z,2.03
2022-10-22T13:55:58.408Z,3.73
2022-10-22T13:58:26.518Z,8.73
2022-10-22T14:00:57.150Z,2.27
2022-10-22T14:03:30.434Z,7.93
2022-10-22T14:05:58.660Z,2.80
2022-10-22T14:08:28.527Z,3.23
2022-10-22T14:10:56.908Z,3.93
2022-10-22T14:13:25.741Z,3.70
2022-10-22T14:15:54.120Z,4.13
2022-10-22T14:18:28.890Z,2.50
2022-10-22T14:21:00.057Z,2.10
2022-10-22T14:23:30.666Z,2.10
2022-10-22T14:25:59.576Z,3.63
2022-10-22T14:28:29.630Z,1.87
2022-10-22T14:30:58.003Z,3.30
2022-10-22T14:33:32.052Z,5.27
2022-10-22T14:36:02.387Z,1.60
2022-10-22T14:38:30.838Z,3.57
2022-10-22T14:41:00.632Z,3.30
2022-10-22T14:43:31.272Z,11.50
2022-10-22T14:46:00.104Z,1.67
2022-10-22T14:48:28.317Z,2.83
2022-10-22T14:50:56.799Z,4.60
2022-10-22T14:53:26.369Z,4.87
2022-10-22T14:55:58.473Z,6.50
2022-10-22T14:58:26.778Z,6.57
2022-10-22T15:00:55.041Z,6.87
2022-10-22T15:03:23.345Z,1.30
2022-10-22T15:05:55.772Z,3.40
2022-10-22T15:08:23.917Z,6.20
2022-10-22T15:11:01.012Z,4.37
2022-10-22T15:13:30.073Z,4.30
2022-10-22T15:15:58.644Z,2.43
2022-10-22T15:18:28.141Z,2.90
2022-10-22T15:20:57.842Z,2.37
2022-10-22T15:23:26.483Z,7.40
2022-10-22T15:25:54.815Z,1.33
2022-10-22T15:28:24.937Z,2.87
2022-10-22T15:30:57.612Z,3.63
2022-10-22T15:33:26.457Z,4.80
2022-10-22T15:35:54.955Z,2.43
2022-10-22T15:38:23.639Z,3.00
2022-10-22T15:40:52.155Z,2.13
2022-10-22T15:43:20.783Z,7.20
2022-10-22T15:46:10.415Z,5.57
2022-10-22T15:48:38.565Z,3.77
2022-10-22T15:51:11.832Z,8.70
2022-10-22T15:53:40.357Z,12.80
2022-10-22T15:56:09.810Z,15.60
2022-10-22T15:58:38.024Z,7.70
2022-10-22T16:01:10.171Z,2.90
2022-10-22T16:03:38.906Z,5.77
2022-10-22T16:06:09.165Z,7.73
2022-10-22T16:08:37.917Z,7.70
2022-10-22T16:11:06.846Z,5.27
2022-10-22T16:13:37.039Z,5.17
2022-10-22T16:16:08.729Z,3.77
2022-10-22T16:18:37.009Z,3.73
2022-10-22T16:21:06.310Z,5.47
2022-10-22T16:23:35.247Z,4.03
2022-10-22T16:26:03.726Z,11.10
2022-10-22T16:28:31.975Z,29.97
2022-10-22T16:31:05.650Z,26.30
2022-10-22T16:33:41.481Z,42.90
2022-10-22T16:36:14.027Z,27.97
2022-10-22T16:38:42.417Z,9.77
2022-10-22T16:41:14.775Z,10.07
2022-10-22T16:43:43.246Z,16.00
2022-10-22T16:46:12.023Z,8.97
2022-10-22T16:48:45.436Z,37.77
2022-10-22T16:51:15.569Z,39.50
2022-10-22T16:53:44.068Z,36.13
2022-10-22T16:56:12.839Z,31.60
2022-10-22T16:58:45.548Z,25.93
2022-10-22T17:01:17.839Z,18.60
2022-10-22T17:03:47.764Z,16.30
2022-10-22T17:06:16.216Z,16.20
2022-10-22T17:08:44.419Z,7.97
2022-10-22T17:11:17.006Z,8.67
2022-10-22T17:13:46.829Z,7.93
2022-10-22T17:16:16.727Z,9.80
2022-10-22T17:18:47.401Z,6.80
2022-10-22T17:21:16.455Z,11.83
2022-10-22T17:23:44.752Z,8.17
2022-10-22T17:26:17.866Z,12.47
2022-10-22T17:28:46.171Z,15.70
2022-10-22T17:31:18.657Z,13.27
2022-10-22T17:33:49.920Z,7.33
2022-10-22T17:36:18.959Z,9.17
2022-10-22T17:38:49.821Z,9.47
2022-10-22T17:41:20.536Z,11.33
2022-10-22T17:43:49.008Z,5.43
2022-10-22T17:46:19.231Z,10.50
2022-10-22T17:48:51.763Z,11.53
2022-10-22T17:51:21.463Z,6.40
2022-10-22T17:53:51.353Z,6.00
2022-10-22T17:56:21.256Z,3.10
2022-10-22T17:58:49.544Z,3.60
2022-10-22T18:01:20.235Z,9.60
2022-10-22T18:03:48.776Z,7.87
2022-10-22T18:06:18.819Z,6.50
2022-10-22T18:08:46.998Z,8.00
2022-10-22T18:11:18.274Z,4.73
2022-10-22T18:13:49.501Z,6.80
2022-10-22T18:16:17.806Z,7.10
2022-10-22T18:18:47.706Z,7.73
2022-10-22T18:21:16.300Z,11.70
2022-10-22T18:23:46.274Z,7.00
2022-10-22T18:26:14.490Z,8.33
2022-10-22T18:28:42.715Z,15.33
2022-10-22T18:31:14.164Z,10.80
2022-10-22T18:33:42.602Z,16.40
2022-10-22T18:36:12.817Z,16.53
2022-10-22T18:38:40.965Z,7.63
2022-10-22T18:41:14.458Z,12.20
2022-10-22T18:43:42.525Z,7.40
2022-10-22T18:46:10.832Z,4.90
2022-10-22T18:48:39.244Z,6.63
2022-10-22T18:51:09.292Z,6.87
2022-10-22T18:53:38.289Z,5.00
2022-10-22T18:56:07.703Z,6.63
2022-10-22T18:58:40.177Z,13.73
2022-10-22T19:01:09.345Z,6.93
2022-10-22T19:03:37.808Z,10.17
2022-10-22T19:06:06.480Z,9.17
2022-10-22T19:08:36.635Z,9.43
2022-10-22T19:11:10.886Z,5.50
2022-10-22T19:13:40.626Z,14.00
2022-10-22T19:16:11.140Z,7.17
2022-10-22T19:18:39.571Z,10.20
2022-10-22T19:21:07.789Z,10.63
2022-10-22T19:23:36.285Z,3.97
2022-10-22T19:26:06.750Z,5.17
2022-10-22T19:28:35.656Z,4.27
2022-10-22T19:31:08.075Z,6.30
2022-10-22T19:33:38.366Z,4.93
2022-10-22T19:36:07.016Z,12.20
2022-10-22T19:38:35.437Z,10.43
2022-10-22T19:41:03.581Z,8.80
2022-10-22T19:43:31.663Z,5.97
2022-10-22T19:45:59.903Z,8.57
2022-10-22T19:48:29.874Z,6.17
2022-10-22T19:51:03.041Z,12.87
2022-10-22T19:53:31.872Z,15.97
2022-10-22T19:56:00.792Z,10.63
2022-10-22T19:58:29.504Z,5.63
2022-10-22T20:00:57.862Z,14.80
2022-10-22T20:03:26.053Z,11.23
2022-10-22T20:05:55.839Z,15.20
2022-10-22T20:08:23.961Z,9.17
2022-10-22T20:10:53.373Z,16.23
2022-10-22T20:13:21.860Z,9.00
2022-10-22T20:15:51.598Z,11.50
2022-10-22T20:18:19.770Z,13.60
2022-10-22T20:20:47.860Z,9.27
2022-10-22T20:23:17.729Z,9.40
2022-10-22T20:25:48.023Z,11.27
2022-10-22T20:28:16.611Z,12.40
2022-10-22T20:30:45.585Z,8.10
2022-10-22T20:33:16.559Z,10.47
2022-10-22T20:35:44.927Z,8.73
2022-10-22T20:38:15.494Z,4.30
2022-10-22T20:40:45.136Z,11.27
2022-10-22T20:43:13.617Z,8.47
2022-10-22T20:45:41.979Z,10.50
2022-10-22T20:48:10.371Z,12.80
2022-10-22T20:50:39.000Z,4.00
2022-10-22T20:53:07.152Z,11.53
2022-10-22T20:55:36.658Z,8.23
2022-10-22T20:58:06.391Z,10.30
2022-10-22T21:00:36.160Z,6.10
2022-10-22T21:03:04.403Z,10.47
2022-10-22T21:05:32.527Z,6.10
2022-10-22T21:08:02.120Z,4.60
2022-10-22T21:10:32.459Z,8.10
2022-10-22T21:13:01.323Z,4.23
2022-10-22T21:15:30.851Z,7.57
2022-10-22T21:17:59.215Z,5.20
2022-10-22T21:20:27.571Z,5.77
2022-10-22T21:22:55.715Z,8.40
2022-10-22T21:25:23.820Z,7.30
2022-10-22T21:27:51.957Z,14.80
2022-10-22T21:30:20.590Z,3.93
2022-10-22T21:32:50.116Z,8.53
2022-10-22T21:35:18.508Z,10.43
2022-10-22T21:37:46.627Z,4.93
2022-10-22T21:40:15.208Z,9.10
2022-10-22T21:42:43.771Z,9.03
2022-10-22T21:45:13.567Z,9.27
2022-10-22T21:47:43.372Z,2.13
2022-10-22T21:50:13.251Z,6.20
2022-10-22T21:52:41.578Z,5.40
2022-10-22T21:55:10.673Z,3.37
2022-10-22T21:57:38.946Z,5.70
2022-10-22T22:00:09.264Z,2.90
2022-10-22T22:02:47.008Z,7.50
2022-10-22T22:05:17.744Z,1.57
2022-10-22T22:07:45.887Z,4.53
2022-10-22T22:10:14.116Z,4.23
2022-10-22T22:12:42.573Z,4.30
2022-10-22T22:15:11.527Z,6.10
2022-10-22T22:17:39.747Z,5.80
2022-10-22T22:20:10.245Z,3.17
2022-10-22T22:22:39.945Z,3.53
2022-10-22T22:25:08.931Z,2.20
2022-10-22T22:27:37.316Z,5.80
2022-10-22T22:30:06.663Z,6.47
2022-10-22T22:32:36.224Z,3.80
2022-10-22T22:35:04.648Z,4.90
2022-10-22T22:37:32.806Z,12.43
2022-10-22T22:40:02.522Z,8.63
2022-10-22T22:42:30.806Z,11.10
2022-10-22T22:44:59.521Z,5.83
2022-10-22T22:47:27.717Z,10.27
2022-10-22T22:49:55.940Z,6.10
2022-10-22T22:52:24.326Z,3.97
2022-10-22T22:54:52.431Z,4.40
2022-10-22T22:57:21.972Z,5.70
2022-10-22T22:59:51.421Z,20.20
2022-10-22T23:02:19.953Z,9.67
2022-10-22T23:04:48.136Z,5.77
2022-10-22T23:07:16.267Z,7.60
2022-10-22T23:09:44.840Z,8.47
2022-10-22T23:12:13.013Z,3.93
2022-10-22T23:14:42.522Z,24.47
2022-10-22T23:17:10.686Z,12.70
2022-10-22T23:19:39.008Z,4.17
2022-10-22T23:22:07.173Z,6.00
2022-10-22T23:24:36.792Z,6.20
2022-10-22T23:27:05.891Z,9.23
2022-10-22T23:29:36.337Z,8.00
2022-10-22T23:32:09.187Z,4.90
2022-10-22T23:34:37.383Z,5.53
2022-10-22T23:37:05.464Z,6.70
2022-10-22T23:39:33.807Z,10.57
2022-10-22T23:42:01.952Z,6.70
2022-10-22T23:44:30.169Z,8.27
2022-10-22T23:46:58.468Z,3.00
2022-10-22T23:49:28.256Z,2.30
2022-10-22T23:51:56.369Z,4.30
2022-10-22T23:54:24.457Z,9.90
2022-10-22T23:56:52.592Z,2.30
2022-10-22T23:59:21.416Z,6.50
